Time;durP1;ratioP1;P1;durP2;ratioP2;P2;SDS_P1;SDS_P2;PMS_P1;PMS_P2;Temp;Humidity;BMP_temperature;BMP_pressure;BME280_temperature;BME280_humidity;BME280_pressure;Samples;Min_cycle;Max_cycle;Signal;HPM_P1;HPM_P2
2022/06/30 00:01:34;;;;;;;3.50;3.20;;;18.70;99.90;;;;;;5040329;28;20507;-55
2022/06/30 00:04:00;;;;;;;3.70;3.40;;;18.60;99.90;;;;;;5031986;28;20182;-55
2022/06/30 00:06:26;;;;;;;3.80;3.20;;;18.60;99.90;;;;;;5038116;28;20202;-55
2022/06/30 00:08:52;;;;;;;3.30;2.93;;;18.60;99.90;;;;;;5045105;28;21100;-55
2022/06/30 00:11:20;;;;;;;5.63;4.30;;;18.60;99.90;;;;;;5036369;28;20198;-54
2022/06/30 00:13:47;;;;;;;6.20;3.80;;;18.70;99.90;;;;;;5031454;28;20446;-55
2022/06/30 00:16:12;;;;;;;5.07;3.63;;;18.60;99.90;;;;;;5031383;28;20472;-55
2022/06/30 00:18:38;;;;;;;5.23;4.13;;;18.60;99.90;;;;;;5036372;28;20486;-55
2022/06/30 00:21:04;;;;;;;7.03;3.63;;;18.50;99.90;;;;;;5047832;28;20237;-55
2022/06/30 00:23:30;;;;;;;3.83;3.40;;;18.50;99.90;;;;;;5041290;28;20445;-55
2022/06/30 00:25:56;;;;;;;5.90;4.17;;;18.40;99.90;;;;;;5031231;28;20453;-56
2022/06/30 00:28:22;;;;;;;4.67;3.60;;;18.40;99.90;;;;;;5031848;28;20476;-55
2022/06/30 00:30:49;;;;;;;7.40;3.47;;;18.40;99.90;;;;;;5033045;28;20617;-55
2022/06/30 00:33:15;;;;;;;4.87;3.77;;;18.30;99.90;;;;;;5041467;28;20190;-54
2022/06/30 00:35:40;;;;;;;4.37;3.97;;;18.30;99.90;;;;;;5034304;28;20532;-55
2022/06/30 00:38:07;;;;;;;4.10;3.60;;;18.30;99.90;;;;;;5037095;28;20459;-55
2022/06/30 00:40:40;;;;;;;5.67;3.70;;;18.20;99.90;;;;;;5044429;28;20194;-55
2022/06/30 00:43:06;;;;;;;6.40;3.63;;;18.20;99.90;;;;;;5047417;28;20449;-55
2022/06/30 00:45:32;;;;;;;7.10;3.70;;;18.10;99.90;;;;;;5049227;28;20448;-56
2022/06/30 00:48:01;;;;;;;8.53;4.00;;;18.20;99.90;;;;;;5037845;28;20207;-55
2022/06/30 00:50:27;;;;;;;3.93;3.53;;;18.10;99.90;;;;;;5049643;28;20420;-55
2022/06/30 00:52:54;;;;;;;7.90;4.10;;;18.10;99.90;;;;;;5033217;28;20970;-60
2022/06/30 00:55:20;;;;;;;5.60;4.00;;;18.10;99.90;;;;;;5042604;28;20488;-56
2022/06/30 00:57:46;;;;;;;4.53;4.10;;;17.90;99.90;;;;;;5037529;28;20580;-56
2022/06/30 01:00:13;;;;;;;5.10;4.07;;;17.90;99.90;;;;;;5052049;28;20517;-55
2022/06/30 01:02:39;;;;;;;8.40;4.10;;;17.80;99.90;;;;;;5040573;28;20714;-55
2022/06/30 01:05:07;;;;;;;4.77;3.80;;;17.80;99.90;;;;;;5035075;28;20453;-56
2022/06/30 01:07:34;;;;;;;4.90;4.00;;;17.70;99.90;;;;;;5043439;28;20445;-56
2022/06/30 01:12:46;;;;;;;4.27;3.87;;;17.60;99.90;;;;;;5034302;28;20464;-56
2022/06/30 01:15:14;;;;;;;4.90;4.47;;;17.60;99.90;;;;;;5037570;28;20469;-55
2022/06/30 01:17:40;;;;;;;5.10;4.07;;;17.50;99.90;;;;;;5037831;28;20496;-55
2022/06/30 01:20:06;;;;;;;8.30;4.57;;;17.50;99.90;;;;;;5052359;28;20451;-56
2022/06/30 01:22:31;;;;;;;4.50;3.97;;;17.40;99.90;;;;;;5038399;28;20683;-55
2022/06/30 01:24:58;;;;;;;6.00;4.07;;;17.40;99.90;;;;;;5034594;28;20465;-55
2022/06/30 01:27:24;;;;;;;4.73;3.80;;;17.40;99.90;;;;;;5037506;28;20256;-56
2022/06/30 01:29:50;;;;;;;5.40;4.90;;;17.40;99.90;;;;;;5041147;28;20844;-55
2022/06/30 01:32:17;;;;;;;5.03;4.00;;;17.30;99.90;;;;;;5037963;28;20290;-56
2022/06/30 01:34:43;;;;;;;4.67;4.17;;;17.20;99.90;;;;;;5047840;28;20921;-55
2022/06/30 01:37:08;;;;;;;5.13;4.63;;;17.30;99.90;;;;;;5046506;28;20503;-55
2022/06/30 01:39:34;;;;;;;4.87;4.37;;;17.20;99.90;;;;;;5053023;28;20606;-55
2022/06/30 01:42:00;;;;;;;4.90;4.50;;;17.10;99.90;;;;;;5042798;28;20698;-57
2022/06/30 01:44:26;;;;;;;6.87;4.50;;;17.10;99.90;;;;;;5046373;28;20182;-55
2022/06/30 01:46:52;;;;;;;5.33;4.43;;;17.20;99.90;;;;;;5043136;28;20448;-55
2022/06/30 01:49:18;;;;;;;4.47;4.10;;;17.10;99.90;;;;;;5052779;28;20182;-55
2022/06/30 01:51:44;;;;;;;8.50;5.17;;;17.00;99.90;;;;;;5045691;28;20241;-55
2022/06/30 01:54:10;;;;;;;4.60;4.20;;;17.00;99.90;;;;;;5040108;28;20444;-55
2022/06/30 01:56:37;;;;;;;6.83;4.53;;;16.90;99.90;;;;;;5045138;28;20517;-56
2022/06/30 01:59:04;;;;;;;6.73;4.47;;;16.80;99.90;;;;;;5043292;28;20529;-56
2022/06/30 02:01:29;;;;;;;4.40;4.00;;;16.70;99.90;;;;;;5033793;28;20491;-55
2022/06/30 02:03:55;;;;;;;4.73;4.33;;;16.70;99.90;;;;;;5047332;28;20935;-55
2022/06/30 02:06:22;;;;;;;8.20;4.83;;;16.60;99.90;;;;;;5034286;28;20217;-55
2022/06/30 02:08:47;;;;;;;8.40;4.93;;;16.60;99.90;;;;;;5039710;28;20194;-55
2022/06/30 02:11:13;;;;;;;4.97;4.40;;;16.50;99.90;;;;;;5051479;28;20426;-56
2022/06/30 02:13:39;;;;;;;5.20;4.80;;;16.40;99.90;;;;;;5050680;28;20206;-56
2022/06/30 02:16:04;;;;;;;5.63;5.10;;;16.40;99.90;;;;;;5052003;28;20206;-55
2022/06/30 02:18:30;;;;;;;7.10;4.80;;;16.30;99.90;;;;;;5039993;28;20182;-55
2022/06/30 02:20:58;;;;;;;8.07;5.00;;;16.30;99.90;;;;;;5046361;28;20278;-55
2022/06/30 02:23:23;;;;;;;5.70;4.53;;;16.20;99.90;;;;;;5036612;28;20183;-55
2022/06/30 02:25:50;;;;;;;5.57;5.07;;;16.10;99.90;;;;;;5036375;28;20472;-55
2022/06/30 02:28:15;;;;;;;5.60;5.10;;;16.10;99.90;;;;;;5034099;28;20468;-55
2022/06/30 02:30:41;;;;;;;5.00;4.60;;;16.00;99.90;;;;;;5038954;28;20210;-55
2022/06/30 02:33:06;;;;;;;6.17;5.57;;;16.00;99.90;;;;;;5043145;28;20183;-56
2022/06/30 02:35:32;;;;;;;5.83;5.33;;;16.00;99.90;;;;;;5041238;28;20201;-55
2022/06/30 02:37:59;;;;;;;6.17;5.33;;;15.90;99.90;;;;;;5045012;28;20218;-56
2022/06/30 02:40:25;;;;;;;8.57;4.87;;;15.90;99.90;;;;;;5043618;28;20200;-55
2022/06/30 02:42:50;;;;;;;6.47;5.17;;;15.80;99.90;;;;;;5051985;28;20902;-55
2022/06/30 02:45:16;;;;;;;6.37;5.77;;;15.90;99.90;;;;;;5033606;28;20197;-55
2022/06/30 02:47:43;;;;;;;5.83;5.23;;;15.90;99.90;;;;;;5033815;28;20213;-55
2022/06/30 02:50:12;;;;;;;6.00;5.40;;;15.90;99.90;;;;;;5033565;28;20248;-56
2022/06/30 02:52:38;;;;;;;6.87;6.10;;;15.80;99.90;;;;;;5035021;28;20574;-55
2022/06/30 02:55:05;;;;;;;5.93;5.37;;;15.90;99.90;;;;;;5045698;28;21228;-55
2022/06/30 02:57:31;;;;;;;6.23;5.63;;;15.90;99.90;;;;;;5050759;28;20530;-55
2022/06/30 02:59:57;;;;;;;6.40;5.70;;;15.90;99.90;;;;;;5034011;28;20441;-55
2022/06/30 03:02:23;;;;;;;7.23;5.80;;;15.90;99.90;;;;;;5033192;28;20426;-55
2022/06/30 03:04:49;;;;;;;7.43;5.30;;;15.80;99.90;;;;;;5032858;28;20436;-55
2022/06/30 03:07:15;;;;;;;6.03;5.53;;;15.80;99.90;;;;;;5035985;28;20212;-55
2022/06/30 03:09:42;;;;;;;5.70;5.10;;;15.90;99.90;;;;;;5045898;28;20432;-55
2022/06/30 03:12:08;;;;;;;6.07;5.33;;;15.80;99.90;;;;;;5048676;28;20837;-55
2022/06/30 03:14:33;;;;;;;10.80;5.80;;;15.80;99.90;;;;;;5050847;28;20539;-55
2022/06/30 03:16:59;;;;;;;6.80;5.73;;;15.80;99.90;;;;;;5038333;28;20497;-57
2022/06/30 03:19:24;;;;;;;6.97;5.70;;;15.90;99.90;;;;;;5035645;28;20193;-55
2022/06/30 03:21:53;;;;;;;6.60;5.20;;;15.90;99.90;;;;;;5038381;28;20225;-54
2022/06/30 03:24:19;;;;;;;8.20;6.27;;;15.90;99.90;;;;;;5032556;28;20183;-55
2022/06/30 03:26:45;;;;;;;7.00;6.07;;;16.00;99.90;;;;;;5031625;28;20441;-55
2022/06/30 03:29:10;;;;;;;7.90;6.37;;;16.00;99.90;;;;;;5039047;28;20505;-56
2022/06/30 03:31:37;;;;;;;7.37;5.97;;;16.00;99.90;;;;;;5040212;28;20532;-55
2022/06/30 03:34:03;;;;;;;7.53;6.70;;;16.00;99.90;;;;;;5046385;28;20218;-56
2022/06/30 03:36:28;;;;;;;7.20;6.00;;;16.00;99.90;;;;;;5033326;28;20512;-55
2022/06/30 03:38:54;;;;;;;9.80;6.10;;;16.00;99.90;;;;;;5042201;28;20589;-55
2022/06/30 03:41:20;;;;;;;6.80;5.80;;;16.10;99.90;;;;;;5043337;28;20193;-55
2022/06/30 03:43:45;;;;;;;7.20;5.60;;;16.00;99.90;;;;;;5042890;28;20190;-55
2022/06/30 03:46:11;;;;;;;7.87;5.93;;;15.90;99.90;;;;;;5045761;28;20194;-55
2022/06/30 03:48:36;;;;;;;8.80;6.10;;;15.90;99.90;;;;;;5046113;28;20241;-55
2022/06/30 03:51:03;;;;;;;6.70;6.10;;;15.90;99.90;;;;;;5032793;28;20875;-55
2022/06/30 03:53:29;;;;;;;9.77;6.40;;;15.90;99.90;;;;;;5043957;28;20276;-54
2022/06/30 03:55:55;;;;;;;7.57;6.90;;;15.90;99.90;;;;;;5033777;28;20907;-55
2022/06/30 03:58:21;;;;;;;8.77;6.00;;;15.90;99.90;;;;;;5036853;28;20445;-56
2022/06/30 04:00:47;;;;;;;9.30;6.47;;;16.00;99.90;;;;;;5031619;28;20449;-55
2022/06/30 04:03:12;;;;;;;6.30;5.70;;;16.10;99.90;;;;;;5039143;28;20229;-55
2022/06/30 04:05:38;;;;;;;7.07;6.37;;;16.10;99.90;;;;;;5032471;28;20202;-55
2022/06/30 04:08:05;;;;;;;6.00;5.50;;;16.20;99.90;;;;;;5047744;28;20202;-55
2022/06/30 04:10:30;;;;;;;8.80;5.17;;;16.20;99.90;;;;;;5039681;28;20194;-55
2022/06/30 04:12:56;;;;;;;7.10;6.00;;;16.30;99.90;;;;;;5048383;28;20495;-55
2022/06/30 04:15:22;;;;;;;6.50;5.40;;;16.30;99.90;;;;;;5035171;28;20201;-55
2022/06/30 04:17:47;;;;;;;8.23;5.30;;;16.30;99.90;;;;;;5040394;28;20210;-56
2022/06/30 04:20:16;;;;;;;8.10;6.17;;;16.40;99.90;;;;;;5031585;28;20182;-55
2022/06/30 04:22:47;;;;;;;6.20;5.60;;;16.50;99.90;;;;;;5039561;28;20197;-55
2022/06/30 04:25:12;;;;;;;7.00;6.30;;;16.50;99.90;;;;;;5034921;28;20437;-55
2022/06/30 04:27:47;;;;;;;10.83;6.10;;;16.60;99.90;;;;;;5031168;28;20438;-55
2022/06/30 04:30:14;;;;;;;6.80;6.10;;;16.80;99.90;;;;;;5036605;28;20280;-55
2022/06/30 04:32:41;;;;;;;8.47;5.87;;;16.80;99.90;;;;;;5038253;28;20451;-54
2022/06/30 04:35:12;;;;;;;9.43;6.00;;;17.00;99.90;;;;;;5040725;28;21133;-56
2022/06/30 04:37:39;;;;;;;7.30;5.90;;;17.10;99.90;;;;;;5035665;28;20457;-60
2022/06/30 04:42:50;;;;;;;7.80;6.10;;;17.40;99.90;;;;;;5045353;28;20423;-55
2022/06/30 04:45:15;;;;;;;7.20;5.77;;;17.50;99.90;;;;;;5046752;28;21270;-56
2022/06/30 04:47:41;;;;;;;11.83;5.80;;;17.60;99.90;;;;;;5035581;28;20528;-55
2022/06/30 04:50:08;;;;;;;9.27;5.50;;;17.70;99.90;;;;;;5035352;28;20660;-56
2022/06/30 04:52:33;;;;;;;6.20;5.30;;;17.80;99.90;;;;;;5035366;28;20961;-59
2022/06/30 04:54:59;;;;;;;6.13;4.90;;;18.00;99.90;;;;;;5035151;28;20449;-56
2022/06/30 04:57:25;;;;;;;8.67;5.73;;;18.20;99.90;;;;;;5035099;28;20620;-56
2022/06/30 04:59:50;;;;;;;9.13;5.60;;;18.30;99.90;;;;;;5035305;28;20270;-56
2022/06/30 05:02:16;;;;;;;7.27;5.97;;;18.40;99.90;;;;;;5034604;28;20191;-56
2022/06/30 05:04:45;;;;;;;7.63;5.10;;;18.50;99.90;;;;;;5039025;28;20190;-56
2022/06/30 05:07:11;;;;;;;6.37;5.27;;;18.60;99.90;;;;;;5048659;28;20205;-60
2022/06/30 05:09:36;;;;;;;6.80;5.40;;;18.80;99.90;;;;;;5035140;28;20433;-59
2022/06/30 05:12:03;;;;;;;6.80;5.33;;;19.00;99.90;;;;;;5042225;28;20440;-60
2022/06/30 05:14:28;;;;;;;9.80;5.20;;;19.20;99.90;;;;;;5035860;28;20202;-59
2022/06/30 05:16:54;;;;;;;5.57;4.60;;;19.30;99.90;;;;;;5035985;28;20472;-59
2022/06/30 05:19:20;;;;;;;5.93;5.33;;;19.40;99.90;;;;;;5048422;28;20182;-61
2022/06/30 05:21:45;;;;;;;6.63;5.03;;;19.60;99.90;;;;;;5055191;28;20205;-65
2022/06/30 05:26:56;;;;;;;5.13;4.67;;;20.00;99.90;;;;;;5038835;28;20282;-59
2022/06/30 05:29:21;;;;;;;8.23;5.00;;;20.20;99.90;;;;;;5033772;28;20524;-60
2022/06/30 05:31:47;;;;;;;7.87;5.40;;;20.30;99.90;;;;;;5040482;28;20521;-60
2022/06/30 05:34:12;;;;;;;8.33;5.03;;;20.40;99.90;;;;;;5036324;28;20187;-60
2022/06/30 05:36:38;;;;;;;7.30;5.27;;;20.60;99.90;;;;;;5033610;28;20540;-60
2022/06/30 05:39:04;;;;;;;5.53;4.23;;;20.80;99.90;;;;;;5033383;28;20206;-59
2022/06/30 05:41:29;;;;;;;6.67;5.00;;;20.90;99.90;;;;;;5034336;28;20621;-60
2022/06/30 05:43:55;;;;;;;6.17;4.67;;;21.00;99.90;;;;;;5037216;28;20266;-60
2022/06/30 05:46:20;;;;;;;8.67;4.73;;;21.10;99.90;;;;;;5038064;28;20192;-60
2022/06/30 05:48:46;;;;;;;5.43;4.70;;;21.00;99.90;;;;;;5047193;28;20204;-59
2022/06/30 05:51:12;;;;;;;4.90;4.40;;;21.00;99.90;;;;;;5036312;28;20195;-60
2022/06/30 05:53:37;;;;;;;7.53;4.90;;;21.10;99.90;;;;;;5036110;28;20191;-60
2022/06/30 05:56:03;;;;;;;6.17;4.57;;;21.30;99.90;;;;;;5033315;28;20548;-67
2022/06/30 05:58:29;;;;;;;7.30;4.67;;;21.60;99.90;;;;;;5033911;28;20219;-60
2022/06/30 06:00:54;;;;;;;7.50;4.87;;;21.80;99.90;;;;;;5032608;28;20453;-60
2022/06/30 06:03:20;;;;;;;5.10;4.30;;;22.00;99.90;;;;;;5034714;28;20281;-60
2022/06/30 06:05:46;;;;;;;8.33;5.03;;;22.20;99.90;;;;;;5040651;28;20691;-60
2022/06/30 06:08:15;;;;;;;9.20;5.10;;;22.40;99.90;;;;;;5049470;28;20324;-61
2022/06/30 06:10:41;;;;;;;4.67;4.20;;;22.50;99.90;;;;;;5051436;28;20188;-61
2022/06/30 06:13:07;;;;;;;7.37;4.20;;;22.60;99.90;;;;;;5050737;28;20934;-60
2022/06/30 06:15:33;;;;;;;5.70;4.80;;;22.80;99.90;;;;;;5050224;28;20806;-61
2022/06/30 06:17:59;;;;;;;6.23;4.73;;;22.80;99.90;;;;;;5041669;28;20465;-61
2022/06/30 06:20:25;;;;;;;5.10;4.60;;;22.70;99.90;;;;;;5039007;28;20186;-61
2022/06/30 06:22:50;;;;;;;7.30;5.00;;;22.70;99.90;;;;;;5044557;28;20213;-61
2022/06/30 06:25:17;;;;;;;7.23;4.37;;;22.60;99.90;;;;;;5045275;28;20225;-61
2022/06/30 06:27:42;;;;;;;8.10;4.70;;;22.80;99.90;;;;;;5046026;28;20568;-62
2022/06/30 06:30:10;;;;;;;6.80;4.37;;;23.00;99.90;;;;;;5050304;28;20483;-61
2022/06/30 06:32:36;;;;;;;7.20;5.17;;;23.40;99.90;;;;;;5050695;28;20178;-61
2022/06/30 06:35:05;;;;;;;6.03;4.70;;;23.40;99.90;;;;;;5051959;28;20529;-61
2022/06/30 06:37:30;;;;;;;6.40;4.73;;;23.50;99.90;;;;;;5052163;28;20552;-61
2022/06/30 06:39:56;;;;;;;5.10;4.63;;;23.30;99.90;;;;;;5033654;28;20889;-61
2022/06/30 06:42:22;;;;;;;7.90;4.97;;;23.30;99.90;;;;;;5032884;28;20181;-61
2022/06/30 06:44:50;;;;;;;10.77;5.70;;;23.30;99.90;;;;;;5045888;28;20194;-61
2022/06/30 06:47:16;;;;;;;8.13;4.87;;;23.60;99.90;;;;;;5033697;28;20232;-61
2022/06/30 06:49:43;;;;;;;8.53;5.00;;;23.90;99.90;;;;;;5036137;28;20905;-60
2022/06/30 06:52:09;;;;;;;8.33;5.17;;;24.20;99.90;;;;;;5046711;28;20535;-61
2022/06/30 06:54:35;;;;;;;8.50;4.97;;;24.30;99.90;;;;;;5047593;28;20440;-62
2022/06/30 06:57:00;;;;;;;4.67;4.10;;;24.60;99.90;;;;;;5046223;28;20233;-61
2022/06/30 06:59:26;;;;;;;8.17;4.60;;;24.70;99.90;;;;;;5051542;28;20189;-61
2022/06/30 07:01:51;;;;;;;6.93;4.20;;;24.90;99.90;;;;;;5051447;28;20194;-61
2022/06/30 07:04:17;;;;;;;12.07;4.60;;;25.10;99.90;;;;;;5044057;28;20191;-61
2022/06/30 07:06:43;;;;;;;9.77;6.30;;;25.30;99.90;;;;;;5046036;28;20217;-61
2022/06/30 07:09:09;;;;;;;8.00;4.10;;;25.60;99.90;;;;;;5042875;28;20195;-61
2022/06/30 07:11:34;;;;;;;8.43;4.60;;;26.00;99.90;;;;;;5044957;28;20228;-61
2022/06/30 07:14:00;;;;;;;5.23;4.40;;;26.10;99.90;;;;;;5051471;28;20198;-64
2022/06/30 07:16:26;;;;;;;6.77;4.20;;;26.20;99.90;;;;;;5049564;28;20263;-61
2022/06/30 07:18:51;;;;;;;6.43;4.53;;;26.20;99.90;;;;;;5043577;28;20633;-60
2022/06/30 07:21:17;;;;;;;5.23;4.70;;;26.30;99.90;;;;;;5047159;28;20175;-60
2022/06/30 07:23:43;;;;;;;10.03;4.20;;;26.40;99.90;;;;;;5044200;28;20186;-61
2022/06/30 07:26:11;;;;;;;6.40;4.67;;;26.60;99.90;;;;;;5043751;28;20182;-53
2022/06/30 07:28:37;;;;;;;5.30;4.80;;;26.90;99.90;;;;;;5046575;28;20617;-52
2022/06/30 07:31:03;;;;;;;6.97;4.90;;;27.00;99.90;;;;;;5038597;28;20420;-52
2022/06/30 07:33:28;;;;;;;10.30;6.50;;;27.30;99.90;;;;;;5052505;28;20397;-53
2022/06/30 07:35:54;;;;;;;6.50;5.17;;;27.60;99.90;;;;;;5051356;28;20204;-54
2022/06/30 07:38:20;;;;;;;8.00;5.27;;;27.70;99.90;;;;;;5052560;28;20226;-56
2022/06/30 07:40:45;;;;;;;8.70;4.60;;;27.80;99.90;;;;;;5049922;28;20187;-52
2022/06/30 07:43:11;;;;;;;7.00;5.13;;;27.70;99.90;;;;;;5053401;28;20229;-52
2022/06/30 07:45:38;;;;;;;7.83;4.70;;;27.70;99.90;;;;;;5039182;28;20197;-52
2022/06/30 07:48:04;;;;;;;5.43;4.50;;;27.80;99.90;;;;;;5033942;28;20445;-53
2022/06/30 07:50:31;;;;;;;8.50;4.80;;;28.20;99.90;;;;;;5041990;28;20452;-52
2022/06/30 07:52:57;;;;;;;6.03;4.83;;;28.40;99.90;;;;;;5054368;28;21183;-53
2022/06/30 07:55:22;;;;;;;6.60;4.50;;;28.60;99.90;;;;;;5052023;28;20480;-53
2022/06/30 07:57:48;;;;;;;10.63;4.60;;;28.90;99.90;;;;;;5051542;28;20577;-52
2022/06/30 08:00:15;;;;;;;4.60;4.20;;;29.10;99.90;;;;;;5047846;28;20596;-53
2022/06/30 08:02:42;;;;;;;7.03;4.87;;;29.30;99.90;;;;;;5042859;28;20417;-52
2022/06/30 08:05:09;;;;;;;8.30;4.33;;;29.30;99.90;;;;;;5049971;28;20436;-53
2022/06/30 08:07:35;;;;;;;5.23;3.80;;;29.10;99.90;;;;;;5037913;28;20437;-53
2022/06/30 08:10:01;;;;;;;6.13;4.20;;;29.20;99.90;;;;;;5032276;28;20445;-53
2022/06/30 08:12:27;;;;;;;7.00;4.63;;;29.40;99.90;;;;;;5042041;28;20513;-53
2022/06/30 08:14:53;;;;;;;4.37;3.97;;;29.40;99.90;;;;;;5048576;28;20735;-54
2022/06/30 08:17:18;;;;;;;7.20;4.10;;;29.60;99.90;;;;;;5031121;28;20556;-57
2022/06/30 08:19:44;;;;;;;5.50;4.17;;;29.80;99.90;;;;;;5035285;28;20977;-52
2022/06/30 08:22:09;;;;;;;5.00;3.80;;;30.10;99.90;;;;;;5034368;28;20194;-53
2022/06/30 08:24:35;;;;;;;7.80;4.03;;;30.30;99.90;;;;;;5036090;28;20186;-53
2022/06/30 08:27:02;;;;;;;5.90;3.93;;;30.30;99.90;;;;;;5042617;28;20197;-53
2022/06/30 08:29:32;;;;;;;7.83;4.30;;;30.60;99.90;;;;;;5033349;28;20194;-53
2022/06/30 08:31:59;;;;;;;5.43;4.50;;;30.60;99.90;;;;;;5043998;28;20446;-53
2022/06/30 08:34:24;;;;;;;4.43;3.70;;;30.70;99.90;;;;;;5032264;28;20969;-53
2022/06/30 08:36:50;;;;;;;7.67;4.10;;;30.90;99.90;;;;;;5034315;28;20496;-54
2022/06/30 08:42:03;;;;;;;5.03;4.30;;;30.70;99.90;;;;;;5041297;28;20197;-53
2022/06/30 08:44:36;;;;;;;4.30;3.90;;;30.80;99.90;;;;;;5045169;28;20440;-54
2022/06/30 08:47:04;;;;;;;4.00;3.60;;;31.10;99.90;;;;;;5031887;28;20440;-53
2022/06/30 08:49:30;;;;;;;4.83;3.93;;;31.30;99.90;;;;;;5031622;28;20473;-53
2022/06/30 08:51:58;;;;;;;7.00;3.73;;;31.40;99.90;;;;;;5050720;28;20466;-53
2022/06/30 08:54:28;;;;;;;5.07;3.90;;;31.30;99.90;;;;;;5047204;28;20514;-53
2022/06/30 08:56:59;;;;;;;6.93;3.73;;;31.30;99.90;;;;;;5050091;28;20522;-54
2022/06/30 08:59:25;;;;;;;5.60;3.97;;;31.40;99.90;;;;;;5034235;28;20930;-54
2022/06/30 09:01:54;;;;;;;4.20;3.77;;;31.40;99.90;;;;;;5030562;28;20416;-53
2022/06/30 09:04:21;;;;;;;4.73;3.50;;;31.20;99.90;;;;;;5030711;28;20850;-53
2022/06/30 09:06:46;;;;;;;5.47;3.60;;;31.20;99.90;;;;;;5030850;28;20460;-53
2022/06/30 09:09:12;;;;;;;4.10;3.70;;;31.40;99.90;;;;;;5036259;28;20900;-55
2022/06/30 09:11:56;;;;;;;5.80;3.20;;;31.60;99.90;;;;;;5047712;28;20182;-54
2022/06/30 09:14:36;;;;;;;4.60;3.40;;;31.50;99.90;;;;;;5047202;28;20695;-54
2022/06/30 09:17:04;;;;;;;6.43;3.83;;;31.60;99.90;;;;;;5030470;28;20502;-54
2022/06/30 09:19:30;;;;;;;7.20;3.93;;;31.50;99.90;;;;;;5034482;28;20443;-54
2022/06/30 09:22:23;;;;;;;3.97;3.57;;;31.70;99.90;;;;;;5040002;28;20855;-53
2022/06/30 09:24:58;;;;;;;4.03;3.27;;;32.00;99.90;;;;;;5049857;28;20499;-53
2022/06/30 09:27:27;;;;;;;3.53;3.13;;;32.20;99.90;;;;;;5053648;28;20440;-54
2022/06/30 09:29:58;;;;;;;4.73;3.57;;;32.30;99.90;;;;;;5048926;28;20507;-53
2022/06/30 09:32:24;;;;;;;6.67;3.10;;;32.30;99.90;;;;;;5053967;28;20445;-53
2022/06/30 09:34:51;;;;;;;4.00;3.20;;;32.30;99.90;;;;;;5047732;28;20478;-53
2022/06/30 09:37:18;;;;;;;3.97;3.53;;;32.50;99.90;;;;;;5034289;28;20714;-53
2022/06/30 09:39:45;;;;;;;5.00;3.37;;;32.80;99.90;;;;;;5034887;28;20449;-53
2022/06/30 09:42:11;;;;;;;6.23;3.10;;;33.00;99.90;;;;;;5044417;28;20441;-54
2022/06/30 09:44:37;;;;;;;3.20;3.00;;;32.80;99.90;;;;;;5038756;28;20442;-54
2022/06/30 09:47:12;;;;;;;4.80;4.03;;;33.00;99.90;;;;;;5049170;28;21081;-53
2022/06/30 09:49:44;;;;;;;3.47;3.17;;;33.20;99.90;;;;;;5050870;28;20190;-53
2022/06/30 09:52:24;;;;;;;3.20;3.00;;;33.60;99.90;;;;;;5052611;28;20480;-56
2022/06/30 09:54:59;;;;;;;3.97;3.27;;;33.60;99.90;;;;;;5045681;28;20453;-56
2022/06/30 09:57:31;;;;;;;3.73;2.70;;;33.50;99.90;;;;;;5037402;28;20465;-56
2022/06/30 09:59:58;;;;;;;3.43;3.00;;;33.70;99.90;;;;;;5034140;28;20441;-56
2022/06/30 10:02:30;;;;;;;4.60;3.13;;;33.60;99.90;;;;;;5033023;28;20540;-56
2022/06/30 10:04:57;;;;;;;3.30;2.80;;;33.70;99.90;;;;;;5035818;28;20456;-56
2022/06/30 10:07:23;;;;;;;4.60;2.90;;;33.90;99.90;;;;;;5033297;28;20410;-58
2022/06/30 10:09:50;;;;;;;4.43;3.23;;;33.80;99.90;;;;;;5032688;28;20966;-57
2022/06/30 10:12:25;;;;;;;3.17;2.87;;;33.80;99.90;;;;;;5046436;28;20480;-56
2022/06/30 10:14:53;;;;;;;4.40;3.43;;;34.00;99.90;;;;;;5046765;28;20437;-56
2022/06/30 10:17:24;;;;;;;4.70;3.30;;;34.20;99.90;;;;;;5032931;28;20531;-56
2022/06/30 10:19:51;;;;;;;5.20;3.10;;;34.30;99.90;;;;;;5032406;28;20433;-57
2022/06/30 10:22:22;;;;;;;4.30;3.50;;;34.10;99.90;;;;;;5048302;28;20452;-56
2022/06/30 10:24:49;;;;;;;3.40;3.10;;;33.90;99.90;;;;;;5051171;28;20444;-56
2022/06/30 10:27:16;;;;;;;3.70;3.40;;;34.00;99.90;;;;;;5052567;28;20844;-57
2022/06/30 10:30:09;;;;;;;4.13;2.80;;;34.30;99.90;;;;;;5033963;28;20450;-57
2022/06/30 10:32:35;;;;;;;3.33;2.67;;;34.80;99.90;;;;;;5032128;28;20766;-56
2022/06/30 10:35:38;;;;;;;3.70;3.40;;;34.70;99.90;;;;;;5032321;28;20828;-56
2022/06/30 10:38:16;;;;;;;4.40;3.30;;;34.70;99.90;;;;;;5036390;28;20981;-56
2022/06/30 10:41:20;;;;;;;3.93;3.37;;;34.90;99.90;;;;;;5052374;28;20436;-56
2022/06/30 10:44:04;;;;;;;3.50;3.13;;;35.00;99.90;;;;;;5045979;28;20483;-57
2022/06/30 10:46:56;;;;;;;5.03;3.20;;;35.30;99.90;;;;;;5052092;28;20423;-58
2022/06/30 10:49:29;;;;;;;3.60;3.30;;;35.40;99.90;;;;;;5044843;28;20449;-56
2022/06/30 10:52:19;;;;;;;4.60;4.10;;;35.00;99.90;;;;;;5047517;28;20443;-57
2022/06/30 10:54:45;;;;;;;5.47;3.27;;;35.00;99.90;;;;;;5042891;28;20446;-56
2022/06/30 10:57:12;;;;;;;6.37;3.50;;;35.10;99.90;;;;;;5031930;28;20460;-57
2022/06/30 10:59:43;;;;;;;3.50;3.10;;;35.30;99.90;;;;;;5039338;28;20447;-57
2022/06/30 11:02:14;;;;;;;4.60;3.73;;;35.50;99.90;;;;;;5052344;28;20932;-56
2022/06/30 11:04:40;;;;;;;4.13;3.50;;;34.80;99.90;;;;;;5050937;28;20429;-56
2022/06/30 11:07:09;;;;;;;5.57;3.47;;;35.00;99.90;;;;;;5051672;28;20420;-57
2022/06/30 11:09:44;;;;;;;5.00;3.30;;;35.40;99.90;;;;;;5051616;28;20900;-56
2022/06/30 11:12:20;;;;;;;5.20;3.60;;;35.80;99.90;;;;;;5051666;28;20460;-60
2022/06/30 11:14:51;;;;;;;6.70;3.47;;;35.90;99.90;;;;;;5051173;28;20527;-57
2022/06/30 11:17:22;;;;;;;3.80;3.47;;;36.10;99.90;;;;;;5051530;28;20441;-57
2022/06/30 11:19:48;;;;;;;4.30;3.33;;;36.10;99.90;;;;;;5049163;28;20438;-57
2022/06/30 11:22:16;;;;;;;3.90;3.20;;;36.20;99.90;;;;;;5051172;28;20387;-57
2022/06/30 11:24:45;;;;;;;3.50;3.23;;;36.40;99.90;;;;;;5042861;28;20905;-56
2022/06/30 11:27:17;;;;;;;4.83;3.20;;;36.30;99.90;;;;;;5031394;28;20417;-57
2022/06/30 11:29:45;;;;;;;4.87;3.43;;;36.20;99.90;;;;;;5042529;28;20410;-58
2022/06/30 11:32:11;;;;;;;4.30;3.70;;;35.60;99.90;;;;;;5051407;28;20371;-56
2022/06/30 11:34:40;;;;;;;3.57;3.27;;;35.30;99.90;;;;;;5050627;28;20452;-57
2022/06/30 11:37:07;;;;;;;3.80;3.50;;;35.30;99.90;;;;;;5051155;28;20495;-56
2022/06/30 11:39:33;;;;;;;3.90;3.60;;;35.40;99.90;;;;;;5049963;28;20456;-57
2022/06/30 11:42:01;;;;;;;4.27;3.87;;;35.80;99.90;;;;;;5047806;28;20452;-57
2022/06/30 11:44:33;;;;;;;4.60;4.00;;;35.80;99.90;;;;;;5050670;28;20914;-56
2022/06/30 11:47:12;;;;;;;4.53;4.00;;;35.00;99.90;;;;;;5046215;28;20442;-56
2022/06/30 11:49:48;;;;;;;5.13;4.07;;;35.10;99.90;;;;;;5031206;28;21073;-57
2022/06/30 11:52:22;;;;;;;4.70;3.90;;;35.30;99.90;;;;;;5046290;28;20405;-57
2022/06/30 11:54:56;;;;;;;4.57;3.80;;;35.00;99.90;;;;;;5040366;28;20443;-56
2022/06/30 11:57:23;;;;;;;4.30;3.70;;;34.00;99.90;;;;;;5051142;28;20448;-57
2022/06/30 11:59:52;;;;;;;4.80;3.83;;;33.10;99.90;;;;;;5050381;28;20493;-56
2022/06/30 12:02:19;;;;;;;4.50;3.40;;;33.50;99.90;;;;;;5051103;28;20425;-56
2022/06/30 12:04:49;;;;;;;4.60;3.73;;;33.90;99.90;;;;;;5048851;28;20469;-57
2022/06/30 12:07:15;;;;;;;4.90;3.93;;;34.70;99.90;;;;;;5050131;28;20464;-57
2022/06/30 12:09:44;;;;;;;9.50;4.10;;;34.50;99.90;;;;;;5051193;28;20421;-57
2022/06/30 12:12:11;;;;;;;4.50;3.93;;;33.70;99.90;;;;;;5044570;28;20712;-56
2022/06/30 12:14:39;;;;;;;6.33;3.87;;;33.90;99.90;;;;;;5033983;28;20448;-57
2022/06/30 12:17:10;;;;;;;5.10;4.37;;;33.80;99.90;;;;;;5049961;28;20957;-56
2022/06/30 12:19:37;;;;;;;5.80;4.27;;;33.30;99.90;;;;;;5041608;28;20494;-57
2022/06/30 12:22:06;;;;;;;4.37;3.97;;;32.70;99.90;;;;;;5043998;28;20469;-56
2022/06/30 12:24:34;;;;;;;4.40;4.00;;;32.70;99.90;;;;;;5045653;28;20427;-56
2022/06/30 12:27:00;;;;;;;5.10;4.60;;;33.60;99.90;;;;;;5049899;28;20476;-57
2022/06/30 12:29:28;;;;;;;4.93;4.30;;;34.00;99.90;;;;;;5050774;28;20459;-57
2022/06/30 12:32:06;;;;;;;5.43;4.40;;;34.30;99.90;;;;;;5033261;28;20229;-58
2022/06/30 12:34:33;;;;;;;5.50;5.00;;;34.50;99.90;;;;;;5047621;28;21203;-57
2022/06/30 12:37:01;;;;;;;4.67;4.10;;;34.20;99.90;;;;;;5050769;28;20554;-57
2022/06/30 12:39:27;;;;;;;4.87;4.37;;;33.90;99.90;;;;;;5050709;28;20483;-64
2022/06/30 12:42:01;;;;;;;6.17;4.43;;;34.20;99.90;;;;;;5039066;28;20440;-56
2022/06/30 12:44:35;;;;;;;5.17;4.37;;;34.70;99.90;;;;;;5050313;28;20867;-57
2022/06/30 12:47:08;;;;;;;5.90;4.40;;;35.10;99.90;;;;;;5047970;28;20445;-57
2022/06/30 12:49:35;;;;;;;5.63;4.67;;;34.70;99.90;;;;;;5046903;28;20449;-56
2022/06/30 12:52:18;;;;;;;4.57;4.17;;;34.10;99.90;;;;;;5040278;28;20522;-56
2022/06/30 12:54:58;;;;;;;4.87;4.27;;;34.70;99.90;;;;;;5048515;28;20448;-57
2022/06/30 12:57:25;;;;;;;6.50;3.90;;;34.80;99.90;;;;;;5054220;28;20452;-57
2022/06/30 12:59:56;;;;;;;7.33;4.70;;;33.70;99.90;;;;;;5054196;28;20409;-56